sensor_id;sensor_type;location;lat;lon;timestamp;temperature;humidity
8860;DHT22;4466;50.948;4.832;2024-03-02T00:01:05;7.40;99.90
8860;DHT22;4466;50.948;4.832;2024-03-02T00:03:30;7.50;99.90
8860;DHT22;4466;50.948;4.832;2024-03-02T00:05:56;7.50;99.90
8860;DHT22;4466;50.948;4.832;2024-03-02T00:08:25;7.50;99.90
8860;DHT22;4466;50.948;4.832;2024-03-02T00:10:51;7.50;99.90
8860;DHT22;4466;50.948;4.832;2024-03-02T00:13:20;7.50;99.90
8860;DHT22;4466;50.948;4.832;2024-03-02T00:15:54;7.50;99.90
8860;DHT22;4466;50.948;4.832;2024-03-02T00:18:24;7.50;99.90
8860;DHT22;4466;50.948;4.832;2024-03-02T00:20:56;7.50;99.90
8860;DHT22;4466;50.948;4.832;2024-03-02T00:23:23;7.50;99.90
8860;DHT22;4466;50.948;4.832;2024-03-02T00:25:50;7.50;99.90
8860;DHT22;4466;50.948;4.832;2024-03-02T00:28:35;7.50;99.90
8860;DHT22;4466;50.948;4.832;2024-03-02T00:31:13;7.50;99.90
8860;DHT22;4466;50.948;4.832;2024-03-02T00:33:44;7.50;99.90
8860;DHT22;4466;50.948;4.832;2024-03-02T00:36:11;7.50;99.90
8860;DHT22;4466;50.948;4.832;2024-03-02T00:38:48;7.50;99.90
8860;DHT22;4466;50.948;4.832;2024-03-02T00:41:29;7.50;99.90
8860;DHT22;4466;50.948;4.832;2024-03-02T00:43:59;7.40;99.90
8860;DHT22;4466;50.948;4.832;2024-03-02T00:46:37;7.40;99.90
8860;DHT22;4466;50.948;4.832;2024-03-02T00:49:04;7.40;99.90
8860;DHT22;4466;50.948;4.832;2024-03-02T00:51:32;7.40;99.90
8860;DHT22;4466;50.948;4.832;2024-03-02T00:54:01;7.40;99.90
8860;DHT22;4466;50.948;4.832;2024-03-02T00:56:30;7.40;99.90
8860;DHT22;4466;50.948;4.832;2024-03-02T00:58:55;7.40;99.90
8860;DHT22;4466;50.948;4.832;2024-03-02T01:01:21;7.40;99.90
8860;DHT22;4466;50.948;4.832;2024-03-02T01:03:48;7.40;99.90
8860;DHT22;4466;50.948;4.832;2024-03-02T01:06:15;7.40;99.90
8860;DHT22;4466;50.948;4.832;2024-03-02T01:08:41;7.40;99.90
8860;DHT22;4466;50.948;4.832;2024-03-02T01:11:07;7.40;99.90
8860;DHT22;4466;50.948;4.832;2024-03-02T01:13:33;7.30;99.90
8860;DHT22;4466;50.948;4.832;2024-03-02T01:15:59;7.30;99.90
8860;DHT22;4466;50.948;4.832;2024-03-02T01:18:25;7.30;99.90
8860;DHT22;4466;50.948;4.832;2024-03-02T01:20:51;7.40;99.90
8860;DHT22;4466;50.948;4.832;2024-03-02T01:23:23;7.40;99.90
8860;DHT22;4466;50.948;4.832;2024-03-02T01:25:49;7.40;99.90
8860;DHT22;4466;50.948;4.832;2024-03-02T01:28:15;7.40;99.90
8860;DHT22;4466;50.948;4.832;2024-03-02T01:30:41;7.40;99.90
8860;DHT22;4466;50.948;4.832;2024-03-02T01:33:07;7.40;99.90
8860;DHT22;4466;50.948;4.832;2024-03-02T01:35:33;7.30;99.90
8860;DHT22;4466;50.948;4.832;2024-03-02T01:37:58;7.30;99.90
8860;DHT22;4466;50.948;4.832;2024-03-02T01:40:24;7.30;99.90
8860;DHT22;4466;50.948;4.832;2024-03-02T01:42:54;7.30;99.90
8860;DHT22;4466;50.948;4.832;2024-03-02T01:45:20;7.20;99.90
8860;DHT22;4466;50.948;4.832;2024-03-02T01:47:45;7.20;99.90
8860;DHT22;4466;50.948;4.832;2024-03-02T01:50:13;7.20;99.90
8860;DHT22;4466;50.948;4.832;2024-03-02T01:52:39;7.30;99.90
8860;DHT22;4466;50.948;4.832;2024-03-02T01:55:05;7.20;99.90
8860;DHT22;4466;50.948;4.832;2024-03-02T01:57:32;7.20;99.90
8860;DHT22;4466;50.948;4.832;2024-03-02T01:59:58;7.20;99.90
8860;DHT22;4466;50.948;4.832;2024-03-02T02:02:24;7.10;99.90
8860;DHT22;4466;50.948;4.832;2024-03-02T02:04:49;7.10;99.90
8860;DHT22;4466;50.948;4.832;2024-03-02T02:07:15;7.00;99.90
8860;DHT22;4466;50.948;4.832;2024-03-02T02:09:44;7.10;99.90
8860;DHT22;4466;50.948;4.832;2024-03-02T02:12:10;7.00;99.90
8860;DHT22;4466;50.948;4.832;2024-03-02T02:14:36;7.00;99.90
8860;DHT22;4466;50.948;4.832;2024-03-02T02:17:02;7.00;99.90
8860;DHT22;4466;50.948;4.832;2024-03-02T02:19:27;7.00;99.90
8860;DHT22;4466;50.948;4.832;2024-03-02T02:21:54;7.00;99.90
8860;DHT22;4466;50.948;4.832;2024-03-02T02:24:20;7.00;99.90
8860;DHT22;4466;50.948;4.832;2024-03-02T02:26:45;7.00;99.90
8860;DHT22;4466;50.948;4.832;2024-03-02T02:29:11;7.00;99.90
8860;DHT22;4466;50.948;4.832;2024-03-02T02:31:41;7.00;99.90
8860;DHT22;4466;50.948;4.832;2024-03-02T02:34:07;7.00;99.90
8860;DHT22;4466;50.948;4.832;2024-03-02T02:36:38;7.10;99.90
8860;DHT22;4466;50.948;4.832;2024-03-02T02:39:05;7.10;99.90
8860;DHT22;4466;50.948;4.832;2024-03-02T02:41:32;7.10;99.90
8860;DHT22;4466;50.948;4.832;2024-03-02T02:43:58;7.20;99.90
8860;DHT22;4466;50.948;4.832;2024-03-02T02:46:23;7.20;99.90
8860;DHT22;4466;50.948;4.832;2024-03-02T02:48:49;7.20;99.90
8860;DHT22;4466;50.948;4.832;2024-03-02T02:51:16;7.10;99.90
8860;DHT22;4466;50.948;4.832;2024-03-02T02:53:42;7.10;99.90
8860;DHT22;4466;50.948;4.832;2024-03-02T02:56:08;7.00;99.90
8860;DHT22;4466;50.948;4.832;2024-03-02T02:58:34;7.00;99.90
8860;DHT22;4466;50.948;4.832;2024-03-02T03:00:59;7.00;99.90
8860;DHT22;4466;50.948;4.832;2024-03-02T03:03:25;6.90;99.90
8860;DHT22;4466;50.948;4.832;2024-03-02T03:05:50;6.80;99.90
8860;DHT22;4466;50.948;4.832;2024-03-02T03:08:16;6.80;99.90
8860;DHT22;4466;50.948;4.832;2024-03-02T03:10:42;6.70;99.90
8860;DHT22;4466;50.948;4.832;2024-03-02T03:13:08;6.60;99.90
8860;DHT22;4466;50.948;4.832;2024-03-02T03:15:37;6.60;99.90
8860;DHT22;4466;50.948;4.832;2024-03-02T03:18:04;6.50;99.90
8860;DHT22;4466;50.948;4.832;2024-03-02T03:20:30;6.50;99.90
8860;DHT22;4466;50.948;4.832;2024-03-02T03:22:56;6.40;99.90
8860;DHT22;4466;50.948;4.832;2024-03-02T03:25:22;6.40;99.90
8860;DHT22;4466;50.948;4.832;2024-03-02T03:27:48;6.30;99.90
8860;DHT22;4466;50.948;4.832;2024-03-02T03:30:14;6.30;99.90
8860;DHT22;4466;50.948;4.832;2024-03-02T03:32:40;6.20;99.90
8860;DHT22;4466;50.948;4.832;2024-03-02T03:35:06;6.10;99.90
8860;DHT22;4466;50.948;4.832;2024-03-02T03:37:32;6.10;99.90
8860;DHT22;4466;50.948;4.832;2024-03-02T03:40:04;6.10;99.90
8860;DHT22;4466;50.948;4.832;2024-03-02T03:42:36;6.00;99.90
8860;DHT22;4466;50.948;4.832;2024-03-02T03:45:02;6.00;99.90
8860;DHT22;4466;50.948;4.832;2024-03-02T03:47:28;6.00;99.90
8860;DHT22;4466;50.948;4.832;2024-03-02T03:49:53;6.00;99.90
8860;DHT22;4466;50.948;4.832;2024-03-02T03:52:19;6.00;99.90
8860;DHT22;4466;50.948;4.832;2024-03-02T03:54:44;6.00;99.90
8860;DHT22;4466;50.948;4.832;2024-03-02T03:57:13;6.00;99.90
8860;DHT22;4466;50.948;4.832;2024-03-02T03:59:38;6.00;99.90
8860;DHT22;4466;50.948;4.832;2024-03-02T04:02:04;6.00;99.90
8860;DHT22;4466;50.948;4.832;2024-03-02T04:04:30;5.90;99.90
8860;DHT22;4466;50.948;4.832;2024-03-02T04:06:55;6.00;99.90
8860;DHT22;4466;50.948;4.832;2024-03-02T04:09:21;6.00;99.90
8860;DHT22;4466;50.948;4.832;2024-03-02T04:11:47;6.00;99.90
8860;DHT22;4466;50.948;4.832;2024-03-02T04:14:12;5.90;99.90
8860;DHT22;4466;50.948;4.832;2024-03-02T04:16:38;5.90;99.90
8860;DHT22;4466;50.948;4.832;2024-03-02T04:19:04;5.90;99.90
8860;DHT22;4466;50.948;4.832;2024-03-02T04:21:30;5.80;99.90
8860;DHT22;4466;50.948;4.832;2024-03-02T04:23:56;5.80;99.90
8860;DHT22;4466;50.948;4.832;2024-03-02T04:26:24;5.80;99.90
8860;DHT22;4466;50.948;4.832;2024-03-02T04:28:51;5.80;99.90
8860;DHT22;4466;50.948;4.832;2024-03-02T04:31:16;5.80;99.90
8860;DHT22;4466;50.948;4.832;2024-03-02T04:33:42;5.80;99.90
8860;DHT22;4466;50.948;4.832;2024-03-02T04:36:08;5.70;99.90
8860;DHT22;4466;50.948;4.832;2024-03-02T04:38:40;5.80;99.90
8860;DHT22;4466;50.948;4.832;2024-03-02T04:41:06;5.80;99.90
8860;DHT22;4466;50.948;4.832;2024-03-02T04:43:32;5.70;99.90
8860;DHT22;4466;50.948;4.832;2024-03-02T04:45:59;5.70;99.90
8860;DHT22;4466;50.948;4.832;2024-03-02T04:48:25;5.70;99.90
8860;DHT22;4466;50.948;4.832;2024-03-02T04:50:50;5.70;99.90
8860;DHT22;4466;50.948;4.832;2024-03-02T04:53:16;5.70;99.90
8860;DHT22;4466;50.948;4.832;2024-03-02T04:55:45;5.60;99.90
8860;DHT22;4466;50.948;4.832;2024-03-02T04:58:30;5.60;99.90
8860;DHT22;4466;50.948;4.832;2024-03-02T05:00:55;5.60;99.90
8860;DHT22;4466;50.948;4.832;2024-03-02T05:03:22;5.60;99.90
8860;DHT22;4466;50.948;4.832;2024-03-02T05:05:47;5.60;99.90
8860;DHT22;4466;50.948;4.832;2024-03-02T05:08:13;5.60;99.90
8860;DHT22;4466;50.948;4.832;2024-03-02T05:10:41;5.60;99.90
8860;DHT22;4466;50.948;4.832;2024-03-02T05:13:07;5.60;99.90
8860;DHT22;4466;50.948;4.832;2024-03-02T05:15:33;5.70;99.90
8860;DHT22;4466;50.948;4.832;2024-03-02T05:17:58;5.70;99.90
8860;DHT22;4466;50.948;4.832;2024-03-02T05:20:25;5.70;99.90
8860;DHT22;4466;50.948;4.832;2024-03-02T05:22:50;5.70;99.90
8860;DHT22;4466;50.948;4.832;2024-03-02T05:25:16;5.70;99.90
8860;DHT22;4466;50.948;4.832;2024-03-02T05:27:42;5.70;99.90
8860;DHT22;4466;50.948;4.832;2024-03-02T05:30:08;5.70;99.90
8860;DHT22;4466;50.948;4.832;2024-03-02T05:32:34;5.60;99.90
8860;DHT22;4466;50.948;4.832;2024-03-02T05:34:59;5.60;99.90
8860;DHT22;4466;50.948;4.832;2024-03-02T05:37:25;5.60;99.90
8860;DHT22;4466;50.948;4.832;2024-03-02T05:39:51;5.60;99.90
8860;DHT22;4466;50.948;4.832;2024-03-02T05:42:16;5.60;99.90
8860;DHT22;4466;50.948;4.832;2024-03-02T05:44:44;5.60;99.90
8860;DHT22;4466;50.948;4.832;2024-03-02T05:47:09;5.50;99.90
8860;DHT22;4466;50.948;4.832;2024-03-02T05:49:35;5.50;99.90
8860;DHT22;4466;50.948;4.832;2024-03-02T05:52:01;5.40;99.90
8860;DHT22;4466;50.948;4.832;2024-03-02T05:54:26;5.40;99.90
8860;DHT22;4466;50.948;4.832;2024-03-02T05:56:52;5.40;99.90
8860;DHT22;4466;50.948;4.832;2024-03-02T05:59:18;5.40;99.90
8860;DHT22;4466;50.948;4.832;2024-03-02T06:01:45;5.40;99.90
8860;DHT22;4466;50.948;4.832;2024-03-02T06:04:12;5.40;99.90
8860;DHT22;4466;50.948;4.832;2024-03-02T06:06:38;5.30;99.90
8860;DHT22;4466;50.948;4.832;2024-03-02T06:09:04;5.30;99.90
8860;DHT22;4466;50.948;4.832;2024-03-02T06:11:36;5.30;99.90
8860;DHT22;4466;50.948;4.832;2024-03-02T06:14:03;5.20;99.90
8860;DHT22;4466;50.948;4.832;2024-03-02T06:16:29;5.20;99.90
8860;DHT22;4466;50.948;4.832;2024-03-02T06:18:55;5.20;99.90
8860;DHT22;4466;50.948;4.832;2024-03-02T06:21:26;5.20;99.90
8860;DHT22;4466;50.948;4.832;2024-03-02T06:23:52;5.20;99.90
8860;DHT22;4466;50.948;4.832;2024-03-02T06:26:18;5.10;99.90
8860;DHT22;4466;50.948;4.832;2024-03-02T06:28:44;5.10;99.90
8860;DHT22;4466;50.948;4.832;2024-03-02T06:31:10;5.10;99.90
8860;DHT22;4466;50.948;4.832;2024-03-02T06:33:36;5.10;99.90
8860;DHT22;4466;50.948;4.832;2024-03-02T06:36:01;5.10;99.90
8860;DHT22;4466;50.948;4.832;2024-03-02T06:38:27;5.10;99.90
8860;DHT22;4466;50.948;4.832;2024-03-02T06:40:53;5.00;99.90
8860;DHT22;4466;50.948;4.832;2024-03-02T06:43:19;5.00;99.90
8860;DHT22;4466;50.948;4.832;2024-03-02T06:45:49;5.10;99.90
8860;DHT22;4466;50.948;4.832;2024-03-02T06:48:14;5.10;99.90
8860;DHT22;4466;50.948;4.832;2024-03-02T06:50:45;5.10;99.90
8860;DHT22;4466;50.948;4.832;2024-03-02T06:53:10;5.10;99.90
8860;DHT22;4466;50.948;4.832;2024-03-02T06:55:36;5.10;99.90
8860;DHT22;4466;50.948;4.832;2024-03-02T06:58:04;5.00;99.90
8860;DHT22;4466;50.948;4.832;2024-03-02T07:00:30;5.00;99.90
8860;DHT22;4466;50.948;4.832;2024-03-02T07:02:56;5.00;99.90
8860;DHT22;4466;50.948;4.832;2024-03-02T07:05:21;5.10;99.90
8860;DHT22;4466;50.948;4.832;2024-03-02T07:07:47;5.10;99.90
8860;DHT22;4466;50.948;4.832;2024-03-02T07:10:12;5.10;99.90
8860;DHT22;4466;50.948;4.832;2024-03-02T07:12:41;5.10;99.90
8860;DHT22;4466;50.948;4.832;2024-03-02T07:15:07;5.20;99.90
8860;DHT22;4466;50.948;4.832;2024-03-02T07:17:33;5.10;99.90
8860;DHT22;4466;50.948;4.832;2024-03-02T07:19:59;5.20;99.90
8860;DHT22;4466;50.948;4.832;2024-03-02T07:22:24;5.20;99.90
8860;DHT22;4466;50.948;4.832;2024-03-02T07:24:50;5.30;99.90
8860;DHT22;4466;50.948;4.832;2024-03-02T07:27:17;5.30;99.90
8860;DHT22;4466;50.948;4.832;2024-03-02T07:29:43;5.50;99.90
8860;DHT22;4466;50.948;4.832;2024-03-02T07:32:10;5.50;99.90
8860;DHT22;4466;50.948;4.832;2024-03-02T07:34:36;5.60;99.90
8860;DHT22;4466;50.948;4.832;2024-03-02T07:37:01;5.70;99.90
8860;DHT22;4466;50.948;4.832;2024-03-02T07:39:30;5.80;99.90
8860;DHT22;4466;50.948;4.832;2024-03-02T07:41:56;5.90;99.90
8860;DHT22;4466;50.948;4.832;2024-03-02T07:44:22;5.90;99.90
8860;DHT22;4466;50.948;4.832;2024-03-02T07:46:48;6.00;99.90
8860;DHT22;4466;50.948;4.832;2024-03-02T07:49:17;6.00;99.90
8860;DHT22;4466;50.948;4.832;2024-03-02T07:51:43;6.10;99.90
8860;DHT22;4466;50.948;4.832;2024-03-02T07:54:09;6.10;99.90
8860;DHT22;4466;50.948;4.832;2024-03-02T07:56:38;6.20;99.90
8860;DHT22;4466;50.948;4.832;2024-03-02T07:59:04;6.20;99.90
8860;DHT22;4466;50.948;4.832;2024-03-02T08:01:31;6.30;99.90
8860;DHT22;4466;50.948;4.832;2024-03-02T08:04:00;6.30;99.90
8860;DHT22;4466;50.948;4.832;2024-03-02T08:06:27;6.30;99.90
8860;DHT22;4466;50.948;4.832;2024-03-02T08:09:02;6.40;99.90
8860;DHT22;4466;50.948;4.832;2024-03-02T08:11:30;6.50;99.90
8860;DHT22;4466;50.948;4.832;2024-03-02T08:13:56;6.60;99.90
8860;DHT22;4466;50.948;4.832;2024-03-02T08:16:25;6.70;99.90
8860;DHT22;4466;50.948;4.832;2024-03-02T08:18:51;6.80;99.90
8860;DHT22;4466;50.948;4.832;2024-03-02T08:21:17;7.00;99.90
8860;DHT22;4466;50.948;4.832;2024-03-02T08:23:43;7.00;99.90
8860;DHT22;4466;50.948;4.832;2024-03-02T08:26:09;7.10;99.90
8860;DHT22;4466;50.948;4.832;2024-03-02T08:28:35;7.20;99.90
8860;DHT22;4466;50.948;4.832;2024-03-02T08:31:06;7.30;99.90
8860;DHT22;4466;50.948;4.832;2024-03-02T08:33:32;7.40;99.90
8860;DHT22;4466;50.948;4.832;2024-03-02T08:35:57;7.40;99.90
8860;DHT22;4466;50.948;4.832;2024-03-02T08:38:23;7.50;99.90
8860;DHT22;4466;50.948;4.832;2024-03-02T08:40:49;7.60;99.90
8860;DHT22;4466;50.948;4.832;2024-03-02T08:43:15;7.70;99.90
8860;DHT22;4466;50.948;4.832;2024-03-02T08:45:41;7.70;99.90
8860;DHT22;4466;50.948;4.832;2024-03-02T08:48:10;7.80;99.90
8860;DHT22;4466;50.948;4.832;2024-03-02T08:50:36;7.90;99.90
8860;DHT22;4466;50.948;4.832;2024-03-02T08:53:05;8.00;99.90
8860;DHT22;4466;50.948;4.832;2024-03-02T08:55:31;8.10;99.90
8860;DHT22;4466;50.948;4.832;2024-03-02T08:57:57;8.10;99.90
8860;DHT22;4466;50.948;4.832;2024-03-02T09:00:23;8.20;99.90
8860;DHT22;4466;50.948;4.832;2024-03-02T09:02:49;8.20;99.90
8860;DHT22;4466;50.948;4.832;2024-03-02T09:05:15;8.30;99.90
8860;DHT22;4466;50.948;4.832;2024-03-02T09:07:40;8.30;99.90
8860;DHT22;4466;50.948;4.832;2024-03-02T09:10:07;8.40;99.90
8860;DHT22;4466;50.948;4.832;2024-03-02T09:12:33;8.40;99.90
8860;DHT22;4466;50.948;4.832;2024-03-02T09:15:00;8.50;99.90
8860;DHT22;4466;50.948;4.832;2024-03-02T09:17:26;8.60;99.90
8860;DHT22;4466;50.948;4.832;2024-03-02T09:19:52;8.60;99.90
8860;DHT22;4466;50.948;4.832;2024-03-02T09:22:19;8.70;99.90
8860;DHT22;4466;50.948;4.832;2024-03-02T09:24:44;8.80;99.90
8860;DHT22;4466;50.948;4.832;2024-03-02T09:27:10;8.80;99.90
8860;DHT22;4466;50.948;4.832;2024-03-02T09:29:36;8.80;99.90
8860;DHT22;4466;50.948;4.832;2024-03-02T09:32:02;8.90;99.90
8860;DHT22;4466;50.948;4.832;2024-03-02T09:34:27;8.90;99.90
8860;DHT22;4466;50.948;4.832;2024-03-02T09:36:53;9.00;99.90
8860;DHT22;4466;50.948;4.832;2024-03-02T09:39:19;9.00;99.90
8860;DHT22;4466;50.948;4.832;2024-03-02T09:41:45;9.00;99.90
8860;DHT22;4466;50.948;4.832;2024-03-02T09:44:12;9.00;99.90
8860;DHT22;4466;50.948;4.832;2024-03-02T09:46:38;9.00;99.90
8860;DHT22;4466;50.948;4.832;2024-03-02T09:49:04;9.10;99.90
8860;DHT22;4466;50.948;4.832;2024-03-02T09:51:31;9.10;99.90
8860;DHT22;4466;50.948;4.832;2024-03-02T09:53:56;9.00;99.90
8860;DHT22;4466;50.948;4.832;2024-03-02T09:56:22;9.10;99.90
8860;DHT22;4466;50.948;4.832;2024-03-02T09:58:48;9.20;99.90
8860;DHT22;4466;50.948;4.832;2024-03-02T10:01:14;9.20;99.90
8860;DHT22;4466;50.948;4.832;2024-03-02T10:03:39;9.30;99.90
8860;DHT22;4466;50.948;4.832;2024-03-02T10:06:21;9.40;99.90
8860;DHT22;4466;50.948;4.832;2024-03-02T10:08:47;9.50;99.90
8860;DHT22;4466;50.948;4.832;2024-03-02T10:11:34;9.60;99.90
8860;DHT22;4466;50.948;4.832;2024-03-02T10:14:10;9.70;99.90
8860;DHT22;4466;50.948;4.832;2024-03-02T10:16:39;9.80;99.90
8860;DHT22;4466;50.948;4.832;2024-03-02T10:19:16;10.10;99.90
8860;DHT22;4466;50.948;4.832;2024-03-02T10:21:49;10.20;99.90
8860;DHT22;4466;50.948;4.832;2024-03-02T10:24:18;10.40;99.90
8860;DHT22;4466;50.948;4.832;2024-03-02T10:26:44;10.50;99.90
8860;DHT22;4466;50.948;4.832;2024-03-02T10:29:11;10.50;99.90
8860;DHT22;4466;50.948;4.832;2024-03-02T10:31:38;10.50;99.90
8860;DHT22;4466;50.948;4.832;2024-03-02T10:34:04;10.60;99.90
8860;DHT22;4466;50.948;4.832;2024-03-02T10:36:29;10.50;99.90
8860;DHT22;4466;50.948;4.832;2024-03-02T10:38:58;10.40;99.90
8860;DHT22;4466;50.948;4.832;2024-03-02T10:41:26;10.40;99.90
8860;DHT22;4466;50.948;4.832;2024-03-02T10:43:56;10.30;99.90
8860;DHT22;4466;50.948;4.832;2024-03-02T10:46:32;10.30;99.90
8860;DHT22;4466;50.948;4.832;2024-03-02T10:48:59;10.40;99.90
8860;DHT22;4466;50.948;4.832;2024-03-02T10:51:29;10.40;99.90
8860;DHT22;4466;50.948;4.832;2024-03-02T10:53:58;10.50;99.90
8860;DHT22;4466;50.948;4.832;2024-03-02T10:56:31;10.50;99.90
8860;DHT22;4466;50.948;4.832;2024-03-02T11:01:32;10.60;99.90
8860;DHT22;4466;50.948;4.832;2024-03-02T11:03:59;10.70;99.90
8860;DHT22;4466;50.948;4.832;2024-03-02T11:06:28;10.80;99.90
8860;DHT22;4466;50.948;4.832;2024-03-02T11:08:55;10.80;99.90
8860;DHT22;4466;50.948;4.832;2024-03-02T11:11:29;10.90;99.90
8860;DHT22;4466;50.948;4.832;2024-03-02T11:13:57;10.80;99.90
8860;DHT22;4466;50.948;4.832;2024-03-02T11:16:35;10.90;99.90
8860;DHT22;4466;50.948;4.832;2024-03-02T11:19:12;11.00;99.90
8860;DHT22;4466;50.948;4.832;2024-03-02T11:21:38;11.10;99.90
8860;DHT22;4466;50.948;4.832;2024-03-02T11:26:53;11.40;99.90
8860;DHT22;4466;50.948;4.832;2024-03-02T11:32:06;11.50;99.90
8860;DHT22;4466;50.948;4.832;2024-03-02T11:34:41;11.50;99.90
8860;DHT22;4466;50.948;4.832;2024-03-02T11:37:11;11.50;99.90
8860;DHT22;4466;50.948;4.832;2024-03-02T11:39:43;11.60;99.90
8860;DHT22;4466;50.948;4.832;2024-03-02T11:42:11;11.50;99.90
8860;DHT22;4466;50.948;4.832;2024-03-02T11:44:37;11.70;99.90
8860;DHT22;4466;50.948;4.832;2024-03-02T11:47:08;11.80;99.90
8860;DHT22;4466;50.948;4.832;2024-03-02T11:49:49;11.90;99.90
8860;DHT22;4466;50.948;4.832;2024-03-02T11:52:15;12.10;99.90
8860;DHT22;4466;50.948;4.832;2024-03-02T11:54:45;12.20;99.90
8860;DHT22;4466;50.948;4.832;2024-03-02T11:57:23;12.20;99.90
8860;DHT22;4466;50.948;4.832;2024-03-02T11:59:49;12.30;99.90
8860;DHT22;4466;50.948;4.832;2024-03-02T12:02:20;12.30;99.90
8860;DHT22;4466;50.948;4.832;2024-03-02T12:04:47;12.20;99.90
8860;DHT22;4466;50.948;4.832;2024-03-02T12:07:22;12.20;99.90
8860;DHT22;4466;50.948;4.832;2024-03-02T12:09:49;12.30;99.90
8860;DHT22;4466;50.948;4.832;2024-03-02T12:12:15;12.40;99.90
8860;DHT22;4466;50.948;4.832;2024-03-02T12:14:53;12.40;99.90
8860;DHT22;4466;50.948;4.832;2024-03-02T12:17:21;12.50;99.90
8860;DHT22;4466;50.948;4.832;2024-03-02T12:19:47;12.60;99.90
8860;DHT22;4466;50.948;4.832;2024-03-02T12:22:13;12.60;99.90
8860;DHT22;4466;50.948;4.832;2024-03-02T12:24:39;12.60;99.90
8860;DHT22;4466;50.948;4.832;2024-03-02T12:27:05;12.60;99.90
8860;DHT22;4466;50.948;4.832;2024-03-02T12:29:32;12.60;99.90
8860;DHT22;4466;50.948;4.832;2024-03-02T12:31:59;12.70;99.90
8860;DHT22;4466;50.948;4.832;2024-03-02T12:34:27;12.80;99.90
8860;DHT22;4466;50.948;4.832;2024-03-02T12:36:52;12.80;99.90
8860;DHT22;4466;50.948;4.832;2024-03-02T12:39:21;13.00;99.90
8860;DHT22;4466;50.948;4.832;2024-03-02T12:41:49;13.00;99.90
8860;DHT22;4466;50.948;4.832;2024-03-02T12:44:19;13.00;99.90
8860;DHT22;4466;50.948;4.832;2024-03-02T12:46:46;13.00;99.90
8860;DHT22;4466;50.948;4.832;2024-03-02T12:49:14;13.00;99.90
8860;DHT22;4466;50.948;4.832;2024-03-02T12:51:42;12.90;99.90
8860;DHT22;4466;50.948;4.832;2024-03-02T12:54:09;12.90;99.90
8860;DHT22;4466;50.948;4.832;2024-03-02T12:56:36;12.80;99.90
8860;DHT22;4466;50.948;4.832;2024-03-02T12:59:03;12.80;99.90
8860;DHT22;4466;50.948;4.832;2024-03-02T13:01:29;12.70;99.90
8860;DHT22;4466;50.948;4.832;2024-03-02T13:03:57;12.50;99.90
8860;DHT22;4466;50.948;4.832;2024-03-02T13:06:23;12.60;99.90
8860;DHT22;4466;50.948;4.832;2024-03-02T13:08:50;12.60;99.90
8860;DHT22;4466;50.948;4.832;2024-03-02T13:11:16;12.60;99.90
8860;DHT22;4466;50.948;4.832;2024-03-02T13:13:42;12.60;99.90
8860;DHT22;4466;50.948;4.832;2024-03-02T13:16:14;12.80;99.90
8860;DHT22;4466;50.948;4.832;2024-03-02T13:18:41;13.20;99.90
8860;DHT22;4466;50.948;4.832;2024-03-02T13:21:08;13.50;99.90
8860;DHT22;4466;50.948;4.832;2024-03-02T13:23:34;13.80;99.90
8860;DHT22;4466;50.948;4.832;2024-03-02T13:26:00;13.90;99.90
8860;DHT22;4466;50.948;4.832;2024-03-02T13:28:26;14.00;99.90
8860;DHT22;4466;50.948;4.832;2024-03-02T13:30:52;13.90;99.90
8860;DHT22;4466;50.948;4.832;2024-03-02T13:33:18;13.90;99.90
8860;DHT22;4466;50.948;4.832;2024-03-02T13:35:49;13.90;99.90
8860;DHT22;4466;50.948;4.832;2024-03-02T13:38:19;13.90;99.90
8860;DHT22;4466;50.948;4.832;2024-03-02T13:40:45;13.90;99.90
8860;DHT22;4466;50.948;4.832;2024-03-02T13:43:11;14.20;99.90
8860;DHT22;4466;50.948;4.832;2024-03-02T13:45:40;14.30;99.90
8860;DHT22;4466;50.948;4.832;2024-03-02T13:48:06;14.30;99.90
8860;DHT22;4466;50.948;4.832;2024-03-02T13:50:32;14.20;99.90
8860;DHT22;4466;50.948;4.832;2024-03-02T13:52:58;14.10;99.90
8860;DHT22;4466;50.948;4.832;2024-03-02T13:55:23;14.00;99.90
8860;DHT22;4466;50.948;4.832;2024-03-02T13:57:49;13.90;99.90
8860;DHT22;4466;50.948;4.832;2024-03-02T14:00:18;13.80;99.90
8860;DHT22;4466;50.948;4.832;2024-03-02T14:02:45;13.80;99.90
8860;DHT22;4466;50.948;4.832;2024-03-02T14:05:12;13.80;99.90
8860;DHT22;4466;50.948;4.832;2024-03-02T14:07:39;13.90;99.90
8860;DHT22;4466;50.948;4.832;2024-03-02T14:10:05;13.80;99.90
8860;DHT22;4466;50.948;4.832;2024-03-02T14:12:31;13.60;99.90
8860;DHT22;4466;50.948;4.832;2024-03-02T14:14:57;13.50;99.90
8860;DHT22;4466;50.948;4.832;2024-03-02T14:17:28;13.40;99.90
8860;DHT22;4466;50.948;4.832;2024-03-02T14:19:53;13.30;99.90
8860;DHT22;4466;50.948;4.832;2024-03-02T14:22:22;13.30;99.90
8860;DHT22;4466;50.948;4.832;2024-03-02T14:24:47;13.30;99.90
8860;DHT22;4466;50.948;4.832;2024-03-02T14:27:14;13.40;99.90
8860;DHT22;4466;50.948;4.832;2024-03-02T14:29:42;13.50;99.90
8860;DHT22;4466;50.948;4.832;2024-03-02T14:32:07;13.50;99.90
8860;DHT22;4466;50.948;4.832;2024-03-02T14:34:33;13.60;99.90
8860;DHT22;4466;50.948;4.832;2024-03-02T14:36:59;13.70;99.90
8860;DHT22;4466;50.948;4.832;2024-03-02T14:39:26;13.70;99.90
8860;DHT22;4466;50.948;4.832;2024-03-02T14:41:52;13.70;99.90
8860;DHT22;4466;50.948;4.832;2024-03-02T14:44:20;13.60;99.90
8860;DHT22;4466;50.948;4.832;2024-03-02T14:46:49;13.50;99.90
8860;DHT22;4466;50.948;4.832;2024-03-02T14:49:16;13.40;99.90
8860;DHT22;4466;50.948;4.832;2024-03-02T14:51:41;13.40;99.90
8860;DHT22;4466;50.948;4.832;2024-03-02T14:54:07;13.30;99.90
8860;DHT22;4466;50.948;4.832;2024-03-02T14:56:32;13.40;99.90
8860;DHT22;4466;50.948;4.832;2024-03-02T14:58:58;13.40;99.90
8860;DHT22;4466;50.948;4.832;2024-03-02T15:01:24;13.50;99.90
8860;DHT22;4466;50.948;4.832;2024-03-02T15:03:50;13.40;99.90
8860;DHT22;4466;50.948;4.832;2024-03-02T15:06:16;13.50;99.90
8860;DHT22;4466;50.948;4.832;2024-03-02T15:08:42;13.60;99.90
8860;DHT22;4466;50.948;4.832;2024-03-02T15:11:08;13.60;99.90
8860;DHT22;4466;50.948;4.832;2024-03-02T15:13:34;13.70;99.90
8860;DHT22;4466;50.948;4.832;2024-03-02T15:16:00;13.70;99.90
8860;DHT22;4466;50.948;4.832;2024-03-02T15:18:25;13.60;99.90
8860;DHT22;4466;50.948;4.832;2024-03-02T15:20:52;13.60;99.90
8860;DHT22;4466;50.948;4.832;2024-03-02T15:23:17;13.60;99.90
8860;DHT22;4466;50.948;4.832;2024-03-02T15:25:43;13.40;99.90
8860;DHT22;4466;50.948;4.832;2024-03-02T15:28:09;13.40;99.90
8860;DHT22;4466;50.948;4.832;2024-03-02T15:30:35;13.30;99.90
8860;DHT22;4466;50.948;4.832;2024-03-02T15:33:00;13.20;99.90
8860;DHT22;4466;50.948;4.832;2024-03-02T15:35:26;13.20;99.90
8860;DHT22;4466;50.948;4.832;2024-03-02T15:37:51;13.20;99.90
8860;DHT22;4466;50.948;4.832;2024-03-02T15:40:17;13.10;99.90
8860;DHT22;4466;50.948;4.832;2024-03-02T15:42:43;13.10;99.90
8860;DHT22;4466;50.948;4.832;2024-03-02T15:45:09;13.10;99.90
8860;DHT22;4466;50.948;4.832;2024-03-02T15:47:34;13.00;99.90
8860;DHT22;4466;50.948;4.832;2024-03-02T15:50:02;13.00;99.90
8860;DHT22;4466;50.948;4.832;2024-03-02T15:52:29;13.00;99.90
8860;DHT22;4466;50.948;4.832;2024-03-02T15:54:55;12.90;99.90
8860;DHT22;4466;50.948;4.832;2024-03-02T15:57:21;12.90;99.90
8860;DHT22;4466;50.948;4.832;2024-03-02T15:59:48;12.80;99.90
8860;DHT22;4466;50.948;4.832;2024-03-02T16:02:15;12.80;99.90
8860;DHT22;4466;50.948;4.832;2024-03-02T16:04:41;12.80;99.90
8860;DHT22;4466;50.948;4.832;2024-03-02T16:07:07;12.70;99.90
8860;DHT22;4466;50.948;4.832;2024-03-02T16:09:32;12.60;99.90
8860;DHT22;4466;50.948;4.832;2024-03-02T16:11:58;12.60;99.90
8860;DHT22;4466;50.948;4.832;2024-03-02T16:14:24;12.60;99.90
8860;DHT22;4466;50.948;4.832;2024-03-02T16:16:49;12.50;99.90
8860;DHT22;4466;50.948;4.832;2024-03-02T16:19:15;12.50;99.90